createdAt,value
2023-04-15T18:20:17.240Z,53.76
2023-04-15T18:22:09.334Z,54.22
2023-04-15T18:24:01.071Z,54.67
2023-04-15T18:25:53.017Z,55.13
2023-04-15T18:27:44.988Z,55.35
2023-04-15T18:29:36.970Z,55.83
2023-04-15T18:31:28.564Z,56.28
2023-04-15T18:33:20.982Z,56.70
2023-04-15T18:35:13.948Z,57.25
2023-04-15T18:37:06.537Z,57.47
2023-04-15T18:41:11.815Z,58.12
2023-04-15T18:43:03.931Z,58.52
2023-04-15T18:44:55.969Z,58.89
2023-04-15T18:46:49.748Z,59.22
2023-04-15T18:48:41.637Z,59.52
2023-04-15T18:50:33.035Z,60.17
2023-04-15T18:52:24.501Z,60.43
2023-04-15T18:54:16.598Z,60.57
2023-04-15T18:56:08.155Z,60.91
2023-04-15T18:58:09.037Z,61.36
2023-04-15T19:00:00.851Z,61.86
2023-04-15T19:01:52.662Z,62.02
2023-04-15T19:03:44.333Z,62.47
2023-04-15T19:05:36.770Z,62.70
2023-04-15T19:07:28.114Z,62.83
2023-04-15T19:09:20.553Z,63.29
2023-04-15T19:11:12.336Z,63.75
2023-04-15T19:13:04.528Z,64.06
2023-04-15T19:14:56.384Z,64.09
2023-04-15T19:16:47.958Z,64.35
2023-04-15T19:18:39.804Z,64.74
2023-04-15T19:20:31.591Z,64.88
2023-04-15T19:22:24.632Z,65.16
2023-04-15T19:24:17.952Z,65.33
2023-04-15T19:26:10.349Z,65.58
2023-04-15T19:28:02.725Z,65.73
2023-04-15T19:29:54.714Z,65.99
2023-04-15T19:31:47.019Z,66.05
2023-04-15T19:33:39.044Z,66.08
2023-04-15T19:35:30.563Z,66.22
2023-04-15T19:39:46.224Z,66.67
2023-04-15T19:41:39.326Z,66.30
2023-04-15T19:43:32.666Z,66.48
2023-04-15T19:45:24.267Z,66.46
2023-04-15T19:47:15.970Z,66.64
2023-04-15T19:49:07.730Z,66.71
2023-04-15T19:51:00.989Z,66.92
2023-04-15T19:52:53.208Z,67.10
2023-04-15T19:54:44.441Z,67.09
2023-04-15T19:56:36.247Z,67.20
2023-04-15T19:58:28.150Z,67.42
2023-04-15T20:00:21.507Z,67.43
2023-04-15T20:02:13.573Z,67.44
2023-04-15T20:04:05.594Z,67.63
2023-04-15T20:05:57.492Z,67.43
2023-04-15T20:07:51.938Z,67.48
2023-04-15T20:09:45.460Z,67.56
2023-04-15T20:12:46.818Z,67.76
2023-04-15T20:13:48.941Z,67.92
2023-04-15T20:15:41.296Z,67.88
2023-04-15T20:17:33.761Z,68.06
2023-04-15T20:19:25.196Z,68.27
2023-04-15T20:21:17.291Z,68.50
2023-04-15T20:23:08.958Z,68.56
2023-04-15T20:25:02.020Z,68.67
2023-04-15T20:26:53.861Z,68.92
2023-04-15T20:28:45.548Z,68.84
2023-04-15T20:30:39.554Z,68.75
2023-04-15T20:32:35.616Z,68.82
2023-04-15T20:34:27.536Z,69.13
2023-04-15T20:36:19.278Z,69.14
2023-04-15T20:38:11.333Z,69.16
2023-04-15T20:40:03.515Z,69.38
2023-04-15T20:41:55.075Z,69.39
2023-04-15T20:43:46.788Z,69.40
2023-04-15T20:45:38.987Z,69.73
2023-04-15T20:47:30.620Z,69.85
2023-04-15T20:49:22.179Z,69.72
2023-04-15T20:51:13.789Z,69.86
2023-04-15T20:53:06.246Z,69.84
2023-04-15T20:54:58.190Z,69.85
2023-04-15T20:56:49.644Z,69.90
2023-04-15T20:58:41.325Z,69.77
2023-04-15T21:00:33.451Z,69.62
2023-04-15T21:02:25.640Z,69.96
2023-04-15T21:04:17.616Z,70.08
2023-04-15T21:06:09.215Z,70.19
2023-04-15T21:08:01.036Z,70.34
2023-04-15T21:10:12.482Z,70.30
2023-04-15T21:12:04.534Z,70.24
2023-04-15T21:13:56.176Z,70.41
2023-04-15T21:15:50.349Z,70.75
2023-04-15T21:17:41.926Z,71.04
2023-04-15T21:19:35.016Z,70.80
2023-04-15T21:21:28.183Z,71.05
2023-04-15T21:23:20.458Z,71.14
2023-04-15T21:25:12.482Z,71.06
2023-04-15T21:27:04.237Z,71.08
2023-04-15T21:28:56.447Z,71.49
2023-04-15T21:30:49.632Z,71.64
2023-04-15T21:32:42.407Z,71.72
2023-04-15T21:34:33.897Z,71.69
2023-04-15T21:36:26.903Z,71.68
2023-04-15T21:38:20.323Z,71.84
2023-04-15T21:40:14.754Z,72.09
2023-04-15T21:42:06.384Z,72.18
2023-04-15T21:43:58.384Z,72.54
2023-04-15T21:46:22.952Z,72.52
2023-04-15T21:48:08.048Z,72.65
2023-04-15T21:49:59.848Z,72.68
2023-04-15T21:51:51.463Z,72.38
2023-04-15T21:53:42.998Z,72.23
2023-04-15T21:55:34.874Z,72.46
2023-04-15T21:57:26.306Z,72.38
2023-04-15T21:59:18.904Z,72.44
2023-04-15T22:01:10.554Z,72.62
2023-04-15T22:03:02.185Z,72.89
2023-04-15T22:04:54.054Z,73.21
2023-04-15T22:06:46.597Z,73.36
2023-04-15T22:08:48.219Z,73.14
2023-04-15T22:11:04.530Z,72.80
2023-04-15T22:13:01.488Z,73.43
2023-04-15T22:14:53.195Z,73.59
2023-04-15T22:16:45.926Z,73.82
2023-04-15T22:18:37.739Z,74.00
2023-04-15T22:20:29.659Z,74.06
2023-04-15T22:22:21.203Z,74.40
2023-04-15T22:24:31.677Z,74.53
2023-04-15T22:26:30.775Z,74.73
2023-04-15T22:28:22.870Z,75.03
2023-04-15T22:30:14.642Z,75.04
2023-04-15T22:32:07.650Z,75.25
2023-04-15T22:33:59.661Z,75.44
2023-04-15T22:35:51.723Z,75.55
2023-04-15T22:37:43.344Z,75.64
2023-04-15T22:39:35.423Z,75.97
2023-04-15T22:41:27.566Z,76.07
2023-04-15T22:43:19.390Z,76.23
2023-04-15T22:45:12.645Z,76.62
2023-04-15T22:47:04.381Z,76.77
2023-04-15T22:48:56.158Z,76.83
2023-04-15T22:50:48.489Z,77.03
2023-04-15T22:52:40.376Z,77.00
2023-04-15T22:54:32.472Z,77.29
2023-04-15T22:56:23.970Z,77.62
2023-04-15T22:58:18.542Z,77.68
2023-04-15T23:00:10.337Z,77.78
2023-04-15T23:02:02.068Z,77.81
2023-04-15T23:03:57.376Z,77.82
2023-04-15T23:05:57.862Z,77.82
2023-04-15T23:07:49.754Z,77.59
2023-04-15T23:09:41.992Z,77.16
2023-04-15T23:11:36.500Z,77.14
2023-04-15T23:13:28.445Z,77.36
2023-04-15T23:15:20.239Z,77.47
2023-04-15T23:17:11.957Z,77.49
2023-04-15T23:19:24.393Z,77.46
2023-04-15T23:21:17.142Z,77.05
2023-04-15T23:23:09.297Z,76.96
2023-04-15T23:25:01.390Z,77.24
2023-04-15T23:26:53.326Z,77.63
2023-04-15T23:28:45.070Z,78.01
2023-04-15T23:30:36.868Z,77.53
2023-04-15T23:32:28.863Z,77.38
2023-04-15T23:34:20.689Z,77.65
2023-04-15T23:36:12.515Z,78.03
2023-04-15T23:38:06.723Z,78.24
2023-04-15T23:39:59.380Z,77.75
2023-04-15T23:41:53.681Z,77.30
2023-04-15T23:43:45.795Z,77.12
2023-04-15T23:45:37.716Z,77.23
2023-04-15T23:47:29.800Z,77.80
2023-04-15T23:49:21.456Z,78.32
2023-04-15T23:51:12.908Z,78.34
2023-04-15T23:53:04.594Z,78.15
2023-04-15T23:54:55.994Z,78.66
2023-04-15T23:56:48.323Z,79.24
2023-04-15T23:58:39.825Z,79.42
